createdAt,value
2022-12-31T00:01:13.954Z,79.16
2022-12-31T00:03:42.750Z,79.39
2022-12-31T00:06:23.177Z,79.32
2022-12-31T00:08:56.162Z,79.41
2022-12-31T00:11:26.338Z,79.39
2022-12-31T00:13:55.339Z,79.48
2022-12-31T00:16:29.914Z,79.56
2022-12-31T00:18:59.886Z,79.67
2022-12-31T00:21:32.247Z,79.61
2022-12-31T00:24:00.907Z,79.82
2022-12-31T00:26:30.806Z,79.74
2022-12-31T00:29:00.614Z,79.99
2022-12-31T00:31:33.326Z,79.94
2022-12-31T00:34:01.441Z,80.05
2022-12-31T00:36:32.808Z,80.29
2022-12-31T00:39:02.189Z,80.09
2022-12-31T00:41:30.621Z,80.32
2022-12-31T00:43:59.397Z,80.41
2022-12-31T00:46:27.424Z,80.39
2022-12-31T00:48:55.493Z,80.53
2022-12-31T00:51:27.517Z,80.55
2022-12-31T00:53:58.594Z,80.59
2022-12-31T00:56:29.639Z,80.47
2022-12-31T00:58:59.268Z,80.54
2022-12-31T01:01:30.771Z,80.60
2022-12-31T01:04:07.397Z,80.78
2022-12-31T01:06:35.844Z,80.45
2022-12-31T01:09:05.163Z,80.73
2022-12-31T01:11:33.307Z,80.71
2022-12-31T01:14:11.039Z,80.63
2022-12-31T01:16:42.968Z,80.82
2022-12-31T01:19:13.999Z,80.87
2022-12-31T01:21:43.629Z,80.79
2022-12-31T01:24:13.771Z,80.82
2022-12-31T01:26:42.692Z,80.72
2022-12-31T01:29:11.737Z,80.81
2022-12-31T01:31:41.020Z,80.96
2022-12-31T01:34:09.147Z,80.93
2022-12-31T01:36:38.452Z,80.91
2022-12-31T01:39:08.601Z,80.80
2022-12-31T01:41:42.979Z,80.41
2022-12-31T01:44:13.720Z,80.32
2022-12-31T01:46:48.523Z,80.27
2022-12-31T01:49:26.296Z,80.06
2022-12-31T01:52:01.335Z,80.01
2022-12-31T01:54:35.484Z,79.72
2022-12-31T01:57:05.354Z,79.75
2022-12-31T01:59:34.195Z,79.56
2022-12-31T02:02:03.142Z,79.38
2022-12-31T02:04:31.614Z,79.06
2022-12-31T02:07:07.218Z,79.07
2022-12-31T02:09:39.457Z,78.93
2022-12-31T02:12:09.689Z,78.77
2022-12-31T02:14:42.704Z,78.73
2022-12-31T02:17:24.467Z,78.74
2022-12-31T02:20:11.250Z,78.55
2022-12-31T02:23:11.632Z,78.19
2022-12-31T02:26:06.533Z,78.01
2022-12-31T02:28:57.476Z,77.70
2022-12-31T02:31:45.400Z,77.40
2022-12-31T02:34:24.549Z,77.09
2022-12-31T02:36:55.237Z,76.91
2022-12-31T02:39:23.421Z,76.71
2022-12-31T02:41:52.428Z,76.33
2022-12-31T02:44:34.390Z,75.93
2022-12-31T02:47:05.316Z,75.52
2022-12-31T02:49:52.547Z,75.28
2022-12-31T02:52:51.352Z,74.99
2022-12-31T02:55:33.061Z,74.57
2022-12-31T02:58:13.071Z,74.35
2022-12-31T03:01:12.935Z,74.16
2022-12-31T03:03:41.833Z,73.83
2022-12-31T03:06:11.678Z,73.61
2022-12-31T03:09:02.927Z,73.68
2022-12-31T03:11:49.776Z,73.73
2022-12-31T03:14:17.704Z,73.32
2022-12-31T03:16:45.823Z,73.20
2022-12-31T03:19:32.374Z,73.06
2022-12-31T03:22:19.884Z,72.58
2022-12-31T03:25:06.472Z,72.47
2022-12-31T03:27:34.600Z,72.66
2022-12-31T03:30:02.523Z,72.17
2022-12-31T03:32:30.517Z,72.15
2022-12-31T03:34:58.679Z,72.21
2022-12-31T03:37:26.634Z,72.06
2022-12-31T03:39:54.549Z,72.13
2022-12-31T03:42:23.148Z,72.32
2022-12-31T03:44:51.187Z,72.37
2022-12-31T03:47:19.104Z,72.26
2022-12-31T03:49:47.399Z,72.39
2022-12-31T03:52:15.284Z,72.33
2022-12-31T03:54:43.242Z,72.25
2022-12-31T03:57:11.712Z,72.51
2022-12-31T03:59:39.690Z,72.64
2022-12-31T04:02:07.787Z,72.29
2022-12-31T04:04:36.032Z,72.24
2022-12-31T04:07:04.134Z,72.44
2022-12-31T04:09:32.167Z,72.50
2022-12-31T04:12:00.341Z,72.65
2022-12-31T04:14:29.528Z,72.72
2022-12-31T04:16:57.669Z,72.73
2022-12-31T04:19:25.797Z,72.67
2022-12-31T04:21:53.672Z,72.72
2022-12-31T04:24:21.726Z,72.83
2022-12-31T04:26:50.403Z,72.98
2022-12-31T04:29:18.480Z,72.91
2022-12-31T04:31:47.130Z,72.88
2022-12-31T04:34:15.153Z,72.99
2022-12-31T04:36:43.034Z,73.00
2022-12-31T04:39:11.133Z,73.13
2022-12-31T04:41:39.181Z,73.12
2022-12-31T04:44:07.230Z,73.10
2022-12-31T04:46:35.362Z,73.22
2022-12-31T04:49:03.422Z,73.17
2022-12-31T04:51:31.825Z,73.00
2022-12-31T04:53:59.998Z,73.16
2022-12-31T04:56:28.700Z,73.27
2022-12-31T04:58:56.723Z,73.31
2022-12-31T05:01:25.248Z,73.23
2022-12-31T05:03:53.552Z,73.46
2022-12-31T05:06:23.874Z,73.46
2022-12-31T05:08:51.954Z,73.47
2022-12-31T05:11:20.017Z,73.52
2022-12-31T05:13:48.397Z,73.46
2022-12-31T05:16:16.693Z,73.49
2022-12-31T05:18:45.017Z,73.51
2022-12-31T05:21:18.439Z,73.58
2022-12-31T05:23:47.041Z,73.62
2022-12-31T05:26:15.484Z,73.90
2022-12-31T05:28:43.479Z,74.02
2022-12-31T05:31:11.703Z,74.30
2022-12-31T05:33:39.706Z,74.57
2022-12-31T05:36:07.915Z,74.69
2022-12-31T05:38:37.627Z,74.75
2022-12-31T05:41:08.202Z,74.83
2022-12-31T05:43:36.262Z,74.74
2022-12-31T05:46:04.970Z,74.75
2022-12-31T05:48:35.530Z,74.82
2022-12-31T05:51:03.625Z,75.00
2022-12-31T05:53:31.610Z,75.05
2022-12-31T05:55:59.551Z,75.12
2022-12-31T05:58:27.601Z,75.23
2022-12-31T06:00:55.842Z,75.02
2022-12-31T06:03:23.814Z,75.06
2022-12-31T06:05:52.081Z,75.25
2022-12-31T06:08:20.603Z,75.19
2022-12-31T06:10:48.646Z,75.23
2022-12-31T06:13:16.638Z,75.12
2022-12-31T06:15:44.827Z,75.33
2022-12-31T06:18:13.125Z,75.47
2022-12-31T06:20:41.021Z,75.51
2022-12-31T06:23:09.133Z,75.66
2022-12-31T06:25:37.248Z,75.84
2022-12-31T06:28:05.875Z,76.00
2022-12-31T06:30:34.132Z,76.35
2022-12-31T06:33:02.097Z,76.50
2022-12-31T06:35:30.049Z,76.55
2022-12-31T06:37:58.173Z,76.48
2022-12-31T06:40:26.301Z,76.57
2022-12-31T06:42:59.688Z,76.54
2022-12-31T06:45:28.630Z,76.44
2022-12-31T06:47:56.578Z,76.47
2022-12-31T06:50:24.531Z,76.49
2022-12-31T06:52:52.588Z,76.47
2022-12-31T06:55:20.908Z,76.46
2022-12-31T06:57:49.072Z,76.44
2022-12-31T07:00:17.786Z,76.47
2022-12-31T07:03:06.929Z,76.39
2022-12-31T07:06:23.289Z,76.38
2022-12-31T07:09:04.679Z,76.26
2022-12-31T07:11:44.768Z,76.37
2022-12-31T07:14:40.673Z,76.24
2022-12-31T07:17:29.186Z,76.26
2022-12-31T07:20:05.437Z,76.14
2022-12-31T07:22:33.783Z,76.07
2022-12-31T07:25:02.171Z,75.93
2022-12-31T07:27:53.017Z,75.99
2022-12-31T07:30:34.104Z,75.86
2022-12-31T07:33:26.213Z,75.78
2022-12-31T07:36:25.362Z,75.76
2022-12-31T07:38:56.605Z,75.75
2022-12-31T07:41:49.669Z,75.73
2022-12-31T07:44:43.183Z,75.77
2022-12-31T07:47:28.342Z,75.81
2022-12-31T07:49:57.805Z,75.69
2022-12-31T07:52:26.502Z,75.71
2022-12-31T07:54:54.568Z,75.75
2022-12-31T07:57:28.443Z,75.63
2022-12-31T08:00:12.236Z,75.50
2022-12-31T08:03:07.656Z,75.37
2022-12-31T08:05:57.643Z,75.46
2022-12-31T08:08:49.257Z,75.41
2022-12-31T08:11:49.022Z,75.27
2022-12-31T08:14:18.953Z,75.30
2022-12-31T08:16:47.672Z,75.24
2022-12-31T08:19:35.996Z,75.06
2022-12-31T08:22:10.761Z,74.97
2022-12-31T08:24:53.892Z,75.00
2022-12-31T08:27:34.269Z,75.01
2022-12-31T08:30:10.106Z,75.12
2022-12-31T08:32:44.986Z,74.86
2022-12-31T08:35:36.946Z,74.60
2022-12-31T08:38:31.000Z,74.68
2022-12-31T08:41:11.260Z,74.72
2022-12-31T08:43:44.881Z,74.51
2022-12-31T08:46:42.278Z,74.74
2022-12-31T08:49:10.718Z,74.55
2022-12-31T08:51:41.512Z,74.53
2022-12-31T08:54:15.449Z,74.31
2022-12-31T08:56:51.147Z,74.02
2022-12-31T08:59:34.781Z,74.17
2022-12-31T09:02:35.408Z,73.89
2022-12-31T09:05:26.663Z,73.93
2022-12-31T09:08:15.875Z,73.85
2022-12-31T09:10:54.451Z,73.64
2022-12-31T09:14:04.725Z,73.53
2022-12-31T09:16:53.841Z,73.34
2022-12-31T09:19:22.161Z,73.28
2022-12-31T09:21:54.669Z,73.07
2022-12-31T09:24:25.141Z,73.37
2022-12-31T09:27:22.463Z,73.29
2022-12-31T09:30:16.663Z,73.30
2022-12-31T09:33:12.541Z,73.31
2022-12-31T09:35:55.530Z,73.17
2022-12-31T09:38:30.079Z,73.22
2022-12-31T09:41:24.071Z,73.14
2022-12-31T09:44:30.435Z,73.05
2022-12-31T09:47:11.266Z,73.28
2022-12-31T09:49:48.288Z,73.21
2022-12-31T09:52:19.304Z,73.24
2022-12-31T09:54:54.183Z,73.22
2022-12-31T09:57:51.339Z,73.09
2022-12-31T10:00:33.379Z,73.04
2022-12-31T10:03:52.974Z,72.74
2022-12-31T10:06:43.537Z,72.56
2022-12-31T10:09:33.351Z,72.67
2022-12-31T10:12:23.616Z,72.64
2022-12-31T10:15:04.195Z,72.59
2022-12-31T10:17:41.294Z,72.31
2022-12-31T10:20:28.874Z,72.00
2022-12-31T10:23:03.338Z,71.92
2022-12-31T10:25:56.049Z,71.96
2022-12-31T10:28:55.009Z,72.06
2022-12-31T10:31:32.080Z,71.82
2022-12-31T10:34:14.699Z,71.87
2022-12-31T10:36:52.668Z,71.85
2022-12-31T10:39:41.831Z,71.69
2022-12-31T10:42:41.590Z,71.73
2022-12-31T10:45:46.474Z,71.63
2022-12-31T10:48:34.604Z,71.61
2022-12-31T10:51:27.198Z,71.56
2022-12-31T10:54:14.547Z,71.50
2022-12-31T10:56:45.338Z,71.29
2022-12-31T10:59:22.576Z,71.32
2022-12-31T11:02:09.259Z,71.14
2022-12-31T11:05:08.654Z,71.11
2022-12-31T11:07:58.214Z,70.71
2022-12-31T11:10:32.177Z,70.82
2022-12-31T11:13:22.047Z,70.84
2022-12-31T11:15:53.215Z,70.97
2022-12-31T11:18:39.253Z,70.89
2022-12-31T11:21:28.716Z,70.54
2022-12-31T11:24:10.195Z,70.81
2022-12-31T11:26:41.267Z,70.69
2022-12-31T11:29:32.848Z,70.64
2022-12-31T11:32:27.815Z,70.67
2022-12-31T11:35:15.725Z,70.78
2022-12-31T11:37:55.954Z,70.83
2022-12-31T11:40:54.032Z,70.84
2022-12-31T11:43:39.659Z,70.55
2022-12-31T11:46:20.967Z,70.67
2022-12-31T11:49:13.615Z,70.42
2022-12-31T11:52:16.013Z,70.34
2022-12-31T11:55:24.334Z,70.15
2022-12-31T11:57:53.261Z,69.88
2022-12-31T12:00:28.250Z,69.86
2022-12-31T12:03:03.672Z,70.08
2022-12-31T12:05:35.228Z,70.30
2022-12-31T12:08:03.450Z,70.40
2022-12-31T12:10:57.351Z,70.45
2022-12-31T12:13:28.090Z,70.46
2022-12-31T12:16:02.852Z,70.54
2022-12-31T12:18:47.583Z,71.71
2022-12-31T12:21:24.165Z,72.74
2022-12-31T12:24:04.484Z,73.11
2022-12-31T12:26:39.045Z,73.30
2022-12-31T12:29:22.171Z,73.31
2022-12-31T12:31:59.342Z,73.47
2022-12-31T12:34:34.664Z,73.66
2022-12-31T12:37:04.485Z,73.71
2022-12-31T12:39:34.563Z,73.81
2022-12-31T12:42:21.453Z,74.05
2022-12-31T12:45:01.013Z,74.17
2022-12-31T12:47:29.111Z,74.24
2022-12-31T12:49:57.217Z,74.43
2022-12-31T12:52:31.370Z,74.58
2022-12-31T12:55:18.241Z,74.69
2022-12-31T12:58:07.917Z,74.78
2022-12-31T13:00:50.280Z,74.95
2022-12-31T13:04:32.050Z,75.07
2022-12-31T13:06:53.696Z,75.19
2022-12-31T13:10:05.452Z,75.29
2022-12-31T13:13:22.248Z,75.09
2022-12-31T13:15:44.815Z,75.03
2022-12-31T13:18:23.407Z,74.92
2022-12-31T13:21:00.979Z,74.84
2022-12-31T13:23:48.838Z,74.74
2022-12-31T13:26:28.148Z,74.64
2022-12-31T13:28:58.628Z,74.39
2022-12-31T13:31:39.356Z,74.19
2022-12-31T13:34:14.680Z,73.92
2022-12-31T13:36:46.054Z,73.62
2022-12-31T13:39:36.317Z,73.65
2022-12-31T13:42:20.867Z,73.59
2022-12-31T13:44:56.335Z,73.37
2022-12-31T13:47:39.455Z,73.18
2022-12-31T13:50:42.668Z,73.09
2022-12-31T13:53:27.153Z,72.96
2022-12-31T13:56:02.202Z,72.78
2022-12-31T13:58:43.802Z,72.75
2022-12-31T14:02:02.124Z,72.54
2022-12-31T14:04:50.621Z,72.38
2022-12-31T14:07:27.818Z,72.22
2022-12-31T14:09:59.499Z,72.15
2022-12-31T14:12:39.795Z,71.91
2022-12-31T14:15:33.052Z,72.12
2022-12-31T14:18:40.912Z,71.97
2022-12-31T14:21:39.534Z,71.82
2022-12-31T14:24:18.552Z,71.72
2022-12-31T14:26:52.466Z,71.62
2022-12-31T14:29:26.535Z,71.63
2022-12-31T14:32:20.729Z,71.69
2022-12-31T14:34:49.838Z,71.77
2022-12-31T14:37:30.437Z,71.58
2022-12-31T14:40:24.946Z,71.75
2022-12-31T14:43:11.430Z,71.42
2022-12-31T14:45:58.340Z,71.44
2022-12-31T14:48:51.856Z,71.50
2022-12-31T14:51:19.967Z,71.48
2022-12-31T14:53:57.000Z,71.49
2022-12-31T14:56:40.765Z,71.49
2022-12-31T14:59:33.393Z,71.45
2022-12-31T15:02:26.411Z,71.35
2022-12-31T15:05:10.354Z,71.28
2022-12-31T15:07:47.298Z,71.19
2022-12-31T15:10:21.491Z,71.09
2022-12-31T15:12:59.267Z,71.07
2022-12-31T15:15:33.028Z,71.08
2022-12-31T15:18:01.203Z,71.05
2022-12-31T15:20:48.653Z,71.06
2022-12-31T15:23:25.581Z,71.23
2022-12-31T15:25:59.934Z,71.38
2022-12-31T15:28:35.568Z,71.36
2022-12-31T15:31:18.956Z,71.32
2022-12-31T15:33:58.471Z,71.33
2022-12-31T15:36:33.183Z,71.26
2022-12-31T15:39:36.437Z,71.26
2022-12-31T15:42:38.637Z,71.15
2022-12-31T15:45:17.439Z,71.26
2022-12-31T15:48:01.983Z,71.21
2022-12-31T15:50:31.049Z,71.18
2022-12-31T15:53:02.806Z,71.24
2022-12-31T15:55:41.714Z,71.21
2022-12-31T15:58:16.694Z,71.15
2022-12-31T16:01:19.389Z,71.11
2022-12-31T16:04:01.037Z,71.13
2022-12-31T16:06:31.841Z,71.23
2022-12-31T16:09:00.054Z,71.26
2022-12-31T16:11:30.844Z,71.17
2022-12-31T16:13:59.935Z,71.13
2022-12-31T16:16:31.652Z,71.06
2022-12-31T16:19:01.320Z,71.02
2022-12-31T16:21:32.918Z,71.06
2022-12-31T16:24:04.247Z,71.01
2022-12-31T16:26:54.145Z,71.06
2022-12-31T16:29:24.290Z,71.03
2022-12-31T16:31:54.118Z,70.84
2022-12-31T16:34:24.916Z,70.85
2022-12-31T16:37:01.926Z,70.93
2022-12-31T16:39:34.168Z,71.01
2022-12-31T16:42:08.709Z,70.97
2022-12-31T16:44:36.797Z,71.02
2022-12-31T16:47:07.371Z,71.17
2022-12-31T16:49:38.983Z,71.26
2022-12-31T16:52:28.077Z,71.20
2022-12-31T16:54:57.217Z,71.25
2022-12-31T16:57:30.211Z,71.01
2022-12-31T17:00:02.740Z,71.09
2022-12-31T17:02:38.338Z,70.88
2022-12-31T17:05:22.359Z,71.00
2022-12-31T17:07:51.057Z,70.85
2022-12-31T17:10:32.612Z,70.94
2022-12-31T17:15:55.421Z,70.78
2022-12-31T17:18:34.330Z,70.65
2022-12-31T17:21:10.933Z,70.78
2022-12-31T17:23:41.512Z,70.56
2022-12-31T17:26:22.190Z,70.65
2022-12-31T17:28:52.041Z,70.54
2022-12-31T17:31:31.080Z,70.63
2022-12-31T17:34:20.956Z,70.69
2022-12-31T17:37:09.447Z,70.68
2022-12-31T17:39:47.721Z,70.68
2022-12-31T17:42:25.152Z,70.54
2022-12-31T17:45:21.391Z,70.64
2022-12-31T17:47:53.801Z,70.73
2022-12-31T17:50:24.949Z,70.64
2022-12-31T17:52:57.620Z,70.56
2022-12-31T17:55:26.571Z,70.75
2022-12-31T17:57:57.260Z,70.68
2022-12-31T18:00:27.085Z,70.82
2022-12-31T18:02:55.327Z,70.77
2022-12-31T18:05:24.879Z,70.80
2022-12-31T18:07:52.985Z,70.68
2022-12-31T18:10:24.047Z,70.64
2022-12-31T18:12:52.627Z,70.63
2022-12-31T18:15:22.764Z,70.57
2022-12-31T18:17:51.247Z,70.40
2022-12-31T18:20:19.429Z,70.36
2022-12-31T18:22:47.567Z,70.14
2022-12-31T18:25:24.057Z,70.22
2022-12-31T18:27:52.024Z,70.09
2022-12-31T18:30:20.413Z,69.93
2022-12-31T18:32:48.711Z,69.83
2022-12-31T18:38:15.354Z,69.68
2022-12-31T18:40:48.628Z,69.78
2022-12-31T18:43:18.819Z,69.71
2022-12-31T18:45:47.644Z,69.75
2022-12-31T18:48:16.111Z,69.51
2022-12-31T18:50:45.437Z,69.54
2022-12-31T18:53:21.678Z,69.61
2022-12-31T18:55:55.674Z,69.45
2022-12-31T18:58:24.231Z,69.41
2022-12-31T19:00:52.634Z,69.41
2022-12-31T19:03:23.519Z,69.26
2022-12-31T19:05:52.070Z,69.36
2022-12-31T19:08:22.607Z,69.29
2022-12-31T19:10:52.041Z,69.33
2022-12-31T19:13:20.443Z,69.32
2022-12-31T19:15:51.404Z,69.45
2022-12-31T19:18:19.380Z,69.25
2022-12-31T19:20:47.944Z,69.36
2022-12-31T19:23:18.387Z,69.42
2022-12-31T19:25:47.988Z,69.54
2022-12-31T19:28:21.677Z,69.49
2022-12-31T19:30:50.271Z,69.61
2022-12-31T19:33:18.658Z,69.63
2022-12-31T19:35:47.780Z,69.53
2022-12-31T19:38:18.552Z,69.76
2022-12-31T19:40:47.782Z,69.84
2022-12-31T19:43:17.768Z,69.62
2022-12-31T19:45:46.703Z,69.61
2022-12-31T19:48:21.687Z,69.68
2022-12-31T19:50:53.914Z,69.65
2022-12-31T19:53:25.276Z,69.84
2022-12-31T19:55:53.584Z,69.79
2022-12-31T19:58:27.392Z,69.83
2022-12-31T20:01:02.492Z,69.88
2022-12-31T20:03:32.988Z,69.87
2022-12-31T20:06:07.206Z,69.90
2022-12-31T20:08:37.257Z,69.96
2022-12-31T20:11:14.169Z,69.99
2022-12-31T20:13:42.446Z,70.02
2022-12-31T20:16:17.286Z,70.02
2022-12-31T20:18:47.502Z,69.99
2022-12-31T20:21:21.405Z,70.19
2022-12-31T20:23:51.040Z,70.06
2022-12-31T20:26:20.730Z,70.10
2022-12-31T20:28:51.282Z,70.20
2022-12-31T20:31:23.717Z,70.14
2022-12-31T20:33:53.683Z,70.19
2022-12-31T20:36:22.646Z,70.36
2022-12-31T20:38:50.711Z,70.32
2022-12-31T20:41:21.683Z,70.31
2022-12-31T20:43:49.813Z,70.32
2022-12-31T20:46:24.859Z,70.29
2022-12-31T20:48:55.479Z,70.35
2022-12-31T20:51:24.423Z,70.29
2022-12-31T20:53:57.752Z,70.50
2022-12-31T20:56:27.919Z,70.51
2022-12-31T20:58:56.672Z,70.41
2022-12-31T21:01:25.639Z,70.32
2022-12-31T21:04:05.272Z,70.58
2022-12-31T21:06:35.461Z,70.50
2022-12-31T21:09:07.223Z,70.42
2022-12-31T21:11:54.442Z,70.58
2022-12-31T21:14:22.684Z,70.51
2022-12-31T21:16:50.827Z,70.60
2022-12-31T21:19:18.782Z,70.50
2022-12-31T21:21:48.372Z,70.53
2022-12-31T21:24:23.239Z,70.43
2022-12-31T21:26:55.338Z,70.55
2022-12-31T21:29:23.637Z,70.49
2022-12-31T21:31:51.540Z,70.58
2022-12-31T21:34:19.677Z,70.51
2022-12-31T21:36:47.592Z,70.55
2022-12-31T21:39:15.573Z,70.59
2022-12-31T21:41:53.022Z,70.55
2022-12-31T21:44:23.655Z,70.56
2022-12-31T21:47:39.733Z,70.50
2022-12-31T21:50:08.988Z,70.72
2022-12-31T21:52:37.249Z,70.68
2022-12-31T21:55:25.227Z,70.60
2022-12-31T21:58:25.283Z,70.70
2022-12-31T22:01:00.080Z,70.85
2022-12-31T22:03:28.816Z,70.74
2022-12-31T22:06:01.961Z,70.82
2022-12-31T22:08:31.489Z,70.78
2022-12-31T22:10:59.421Z,70.82
2022-12-31T22:13:27.542Z,70.94
2022-12-31T22:16:04.282Z,70.94
2022-12-31T22:18:38.915Z,70.88
2022-12-31T22:21:21.869Z,70.87
2022-12-31T22:23:52.368Z,70.76
2022-12-31T22:26:23.817Z,70.69
2022-12-31T22:28:52.642Z,70.81
2022-12-31T22:31:24.647Z,70.65
2022-12-31T22:33:53.628Z,70.48
2022-12-31T22:36:23.096Z,70.51
2022-12-31T22:38:55.558Z,70.41
2022-12-31T22:41:25.265Z,70.31
2022-12-31T22:44:02.582Z,70.16
2022-12-31T22:46:32.392Z,70.11
2022-12-31T22:49:03.088Z,70.07
2022-12-31T22:51:56.361Z,70.04
2022-12-31T22:54:20.440Z,69.97
2022-12-31T22:56:48.409Z,69.84
2022-12-31T22:59:16.479Z,69.99
2022-12-31T23:01:44.717Z,69.85
2022-12-31T23:04:12.888Z,69.80
2022-12-31T23:06:43.819Z,69.81
2022-12-31T23:09:35.416Z,69.93
2022-12-31T23:12:06.006Z,69.75
2022-12-31T23:14:53.114Z,69.70
2022-12-31T23:17:42.572Z,69.75
2022-12-31T23:20:41.222Z,69.75
2022-12-31T23:23:15.576Z,69.68
2022-12-31T23:25:47.949Z,69.61
2022-12-31T23:28:20.001Z,69.77
2022-12-31T23:30:48.826Z,69.67
2022-12-31T23:33:19.774Z,69.49
2022-12-31T23:35:47.894Z,69.62
2022-12-31T23:38:17.804Z,69.36
2022-12-31T23:40:46.119Z,69.51
2022-12-31T23:43:22.533Z,69.41
2022-12-31T23:45:51.297Z,69.44
2022-12-31T23:48:19.279Z,69.37
2022-12-31T23:50:54.009Z,69.31
2022-12-31T23:53:24.027Z,69.20
2022-12-31T23:55:52.813Z,69.41
2022-12-31T23:58:21.311Z,69.27
